Time;durP1;ratioP1;P1;durP2;ratioP2;P2;SDS_P1;SDS_P2;PMS_P1;PMS_P2;Temp;Humidity;BMP_temperature;BMP_pressure;BME280_temperature;BME280_humidity;BME280_pressure;Samples;Min_cycle;Max_cycle;Signal;HPM_P1;HPM_P2
2022/06/21 00:00:23;;;;;;;9.70;4.20;;;11.00;99.90;;;;;;4972436;28;20153;-65
2022/06/21 00:02:53;;;;;;;6.05;3.90;;;11.20;99.90;;;;;;4987525;28;20069;-65
2022/06/21 00:05:31;;;;;;;8.85;3.75;;;11.10;99.90;;;;;;4995437;28;20046;-65
2022/06/21 00:07:56;;;;;;;7.40;3.80;;;11.00;99.90;;;;;;4962796;28;20046;-65
2022/06/21 00:10:23;;;;;;;6.68;3.72;;;10.90;99.90;;;;;;4975047;28;20045;-65
2022/06/21 00:12:48;;;;;;;9.32;4.30;;;10.80;99.90;;;;;;4982547;28;20117;-65
2022/06/21 00:15:15;;;;;;;7.32;3.58;;;10.70;99.90;;;;;;4973238;28;20495;-65
2022/06/21 00:17:45;;;;;;;7.05;4.07;;;10.60;99.90;;;;;;4974645;28;20061;-65
2022/06/21 00:20:18;;;;;;;6.22;4.10;;;10.40;99.90;;;;;;4989897;28;20088;-65
2022/06/21 00:22:44;;;;;;;5.57;3.65;;;10.50;99.90;;;;;;4984043;28;20074;-65
2022/06/21 00:25:19;;;;;;;8.55;3.75;;;10.50;99.90;;;;;;4972147;28;20435;-65
2022/06/21 00:27:45;;;;;;;11.48;4.20;;;10.20;99.90;;;;;;4970415;28;20093;-65
2022/06/21 00:30:12;;;;;;;13.88;5.10;;;10.10;99.90;;;;;;4994709;28;20045;-65
2022/06/21 00:32:38;;;;;;;6.22;4.28;;;10.00;99.90;;;;;;4977711;28;20035;-65
2022/06/21 00:35:11;;;;;;;7.78;4.13;;;10.10;99.90;;;;;;4990339;28;20030;-65
2022/06/21 00:37:37;;;;;;;7.70;3.92;;;10.10;99.90;;;;;;4976104;28;20491;-65
2022/06/21 00:40:27;;;;;;;10.80;4.18;;;10.10;99.90;;;;;;4970502;28;20043;-65
2022/06/21 00:43:04;;;;;;;8.63;3.92;;;10.10;99.90;;;;;;4954863;28;20042;-65
2022/06/21 00:45:42;;;;;;;9.55;4.43;;;10.00;99.90;;;;;;4974794;28;20035;-65
2022/06/21 00:51:51;;;;;;;8.98;4.93;;;10.10;99.90;;;;;;4972008;28;20082;-65
2022/06/21 00:54:25;;;;;;;9.88;4.18;;;9.80;99.90;;;;;;4974307;28;20038;-65
2022/06/21 00:57:13;;;;;;;6.65;4.00;;;9.60;99.90;;;;;;4955681;29;20066;-65
2022/06/21 00:59:39;;;;;;;7.28;3.80;;;9.40;99.90;;;;;;4961610;28;20077;-65
2022/06/21 01:02:26;;;;;;;6.63;4.63;;;9.30;99.90;;;;;;4974183;28;20125;-65
2022/06/21 01:04:56;;;;;;;7.80;4.47;;;9.30;99.90;;;;;;4967215;28;20030;-65
2022/06/21 01:07:22;;;;;;;4.95;3.67;;;9.40;99.90;;;;;;4971939;28;20483;-65
2022/06/21 01:09:53;;;;;;;6.22;4.88;;;9.50;99.90;;;;;;4985833;28;20034;-65
2022/06/21 01:12:26;;;;;;;8.23;4.28;;;9.50;99.90;;;;;;4993636;28;20054;-65
2022/06/21 01:14:59;;;;;;;6.07;3.90;;;9.50;99.90;;;;;;4984109;28;20046;-65
2022/06/21 01:17:27;;;;;;;8.40;3.90;;;9.40;99.90;;;;;;4971711;28;20486;-65
2022/06/21 01:20:03;;;;;;;3.85;3.08;;;9.30;99.90;;;;;;4993316;28;20553;-65
2022/06/21 01:22:56;;;;;;;6.18;3.67;;;9.30;99.90;;;;;;4993930;28;20137;-65
2022/06/21 01:25:37;;;;;;;7.25;3.30;;;9.30;99.90;;;;;;4972636;28;20035;-65
2022/06/21 01:28:05;;;;;;;4.25;2.67;;;9.40;99.90;;;;;;4974250;28;20031;-65
2022/06/21 01:30:33;;;;;;;6.20;3.60;;;9.20;99.90;;;;;;4974112;28;20113;-65
2022/06/21 01:32:59;;;;;;;262.13;8.15;;;9.10;99.90;;;;;;4959963;28;20042;-65
2022/06/21 01:35:41;;;;;;;178.90;6.68;;;9.10;99.90;;;;;;4982317;28;20047;-65
2022/06/21 01:38:12;;;;;;;87.47;4.85;;;9.10;99.90;;;;;;4993344;28;20494;-65
2022/06/21 01:40:44;;;;;;;93.05;5.43;;;9.00;99.90;;;;;;4972333;28;20170;-65
2022/06/21 01:43:15;;;;;;;117.57;5.97;;;8.90;99.90;;;;;;4982171;28;20038;-65
2022/06/21 01:45:54;;;;;;;39.45;3.95;;;8.90;99.90;;;;;;4982399;28;20502;-65
2022/06/21 01:48:28;;;;;;;17.00;3.72;;;8.80;99.90;;;;;;4972123;28;20045;-65
2022/06/21 01:50:59;;;;;;;8.43;3.50;;;8.70;99.90;;;;;;4978783;28;20049;-65
2022/06/21 01:53:26;;;;;;;109.10;6.60;;;8.70;99.90;;;;;;4956414;28;20126;-64
2022/06/21 01:56:06;;;;;;;120.00;6.70;;;8.80;99.90;;;;;;4993343;28;20089;-65
2022/06/21 01:58:41;;;;;;;13.27;4.85;;;8.80;99.90;;;;;;4978115;28;20085;-65
2022/06/21 02:01:17;;;;;;;10.35;4.20;;;8.80;99.90;;;;;;4981018;28;20035;-65
2022/06/21 02:03:47;;;;;;;69.57;5.68;;;8.90;99.90;;;;;;4973746;28;20074;-65
2022/06/21 02:06:14;;;;;;;152.07;7.40;;;8.80;99.90;;;;;;4970577;28;20139;-65
2022/06/21 02:08:48;;;;;;;40.80;5.20;;;8.80;99.90;;;;;;4972752;28;20047;-65
2022/06/21 02:11:26;;;;;;;12.70;4.53;;;8.80;99.90;;;;;;4973108;28;20078;-65
2022/06/21 02:16:42;;;;;;;6.47;4.50;;;8.80;99.90;;;;;;4972115;28;20454;-65
2022/06/21 02:19:22;;;;;;;122.15;7.50;;;8.90;99.90;;;;;;4987658;28;20042;-65
2022/06/21 02:21:48;;;;;;;34.55;5.40;;;8.90;99.90;;;;;;4985714;28;20035;-65
2022/06/21 02:24:14;;;;;;;12.88;3.83;;;8.90;99.90;;;;;;4972747;28;20041;-65
2022/06/21 02:26:40;;;;;;;4.80;3.65;;;8.80;99.90;;;;;;4975400;28;20045;-65
2022/06/21 02:29:06;;;;;;;7.70;3.70;;;8.70;99.90;;;;;;4989830;28;20044;-65
2022/06/21 02:31:32;;;;;;;6.15;4.20;;;8.70;99.90;;;;;;4951985;28;20043;-65
2022/06/21 02:34:03;;;;;;;8.70;4.28;;;8.70;99.90;;;;;;4972576;28;20097;-65
2022/06/21 02:36:44;;;;;;;12.43;4.20;;;8.70;99.90;;;;;;4972572;28;20454;-65
2022/06/21 02:39:17;;;;;;;3.20;2.70;;;8.70;99.90;;;;;;4970704;28;20050;-64
2022/06/21 02:41:49;;;;;;;5.60;3.00;;;8.60;99.90;;;;;;4972307;28;20411;-65
2022/06/21 02:44:25;;;;;;;9.43;4.68;;;8.50;99.90;;;;;;4948152;29;20484;-65
2022/06/21 02:46:55;;;;;;;276.17;9.35;;;8.40;99.90;;;;;;4964905;28;20142;-65
2022/06/21 02:49:23;;;;;;;7.70;4.10;;;8.30;99.90;;;;;;4979426;28;20045;-65
2022/06/21 02:52:30;;;;;;;6.05;3.53;;;8.00;99.90;;;;;;4977174;28;20547;-65
2022/06/21 02:55:25;;;;;;;177.88;7.47;;;7.90;99.90;;;;;;4975229;28;20142;-65
2022/06/21 02:58:01;;;;;;;257.95;9.50;;;7.70;99.90;;;;;;4972336;28;20069;-65
2022/06/21 03:00:27;;;;;;;261.88;9.10;;;7.50;99.90;;;;;;4972377;28;20038;-65
2022/06/21 03:02:53;;;;;;;191.07;7.45;;;7.60;99.90;;;;;;4970170;28;20034;-65
2022/06/21 03:05:22;;;;;;;62.65;4.70;;;7.60;99.90;;;;;;4969168;28;20414;-65
2022/06/21 03:07:53;;;;;;;6.25;3.50;;;7.70;99.90;;;;;;4972146;28;20495;-65
2022/06/21 03:10:26;;;;;;;23.90;3.70;;;7.70;99.90;;;;;;4972373;28;20064;-65
2022/06/21 03:13:00;;;;;;;99.78;5.10;;;7.90;99.90;;;;;;4970037;28;20050;-65
2022/06/21 03:15:27;;;;;;;13.02;3.00;;;8.00;99.90;;;;;;4971690;28;20046;-65
2022/06/21 03:18:04;;;;;;;26.52;4.55;;;8.10;99.90;;;;;;4973944;28;20034;-65
2022/06/21 03:20:33;;;;;;;39.92;4.50;;;8.00;99.90;;;;;;4973478;28;20082;-65
2022/06/21 03:22:59;;;;;;;24.33;3.90;;;7.70;99.90;;;;;;4969586;28;20495;-65
2022/06/21 03:25:38;;;;;;;8.25;3.17;;;7.60;99.90;;;;;;4976387;28;20042;-65
2022/06/21 03:28:21;;;;;;;11.45;3.17;;;7.50;99.90;;;;;;4976384;28;20043;-65
2022/06/21 03:30:48;;;;;;;11.98;3.58;;;7.40;99.90;;;;;;4972928;28;20788;-65
2022/06/21 03:33:14;;;;;;;10.68;3.20;;;7.40;99.90;;;;;;4966364;28;20383;-65
2022/06/21 03:35:40;;;;;;;6.60;2.95;;;7.20;99.90;;;;;;4976380;28;20043;-65
2022/06/21 03:38:06;;;;;;;44.17;4.18;;;7.20;99.90;;;;;;4978608;28;20443;-65
2022/06/21 03:43:25;;;;;;;54.97;4.70;;;7.10;99.90;;;;;;4974185;28;20058;-65
2022/06/21 03:45:54;;;;;;;25.50;3.78;;;7.20;99.90;;;;;;4970164;28;20443;-65
2022/06/21 03:48:36;;;;;;;35.63;3.85;;;7.20;99.90;;;;;;4974786;28;20039;-65
2022/06/21 03:51:19;;;;;;;25.80;3.72;;;7.30;99.90;;;;;;4975035;28;20113;-65
2022/06/21 03:53:59;;;;;;;14.13;3.40;;;7.40;99.90;;;;;;4968747;28;20780;-64
2022/06/21 03:56:41;;;;;;;12.90;3.55;;;7.40;99.90;;;;;;4971849;28;20046;-65
2022/06/21 03:59:34;;;;;;;26.67;3.53;;;7.50;99.90;;;;;;4975164;28;20050;-65
2022/06/21 04:02:09;;;;;;;11.20;3.38;;;7.70;99.90;;;;;;4978317;28;20042;-65
2022/06/21 04:05:07;;;;;;;4.18;3.42;;;7.80;99.90;;;;;;4985681;28;20093;-65
2022/06/21 04:08:13;;;;;;;5.63;3.55;;;7.90;99.90;;;;;;4993575;28;20523;-65
2022/06/21 04:10:43;;;;;;;20.60;4.28;;;8.10;99.90;;;;;;4973606;28;20062;-65
2022/06/21 04:13:20;;;;;;;6.33;4.10;;;8.20;99.90;;;;;;4973913;28;20113;-65
2022/06/21 04:16:01;;;;;;;4.75;3.92;;;8.30;99.90;;;;;;4974796;28;20046;-65
2022/06/21 04:18:57;;;;;;;27.83;4.97;;;8.40;99.90;;;;;;4974271;28;20039;-64
2022/06/21 04:21:42;;;;;;;42.10;4.63;;;8.40;99.90;;;;;;4973700;28;20466;-65
2022/06/21 04:24:16;;;;;;;15.45;4.65;;;8.40;99.90;;;;;;4987439;28;20074;-65
2022/06/21 04:26:57;;;;;;;4.60;4.10;;;8.40;99.90;;;;;;4971713;28;20031;-65
2022/06/21 04:29:34;;;;;;;4.97;4.18;;;8.50;99.90;;;;;;4978547;28;20042;-65
2022/06/21 04:32:14;;;;;;;4.35;3.55;;;8.60;99.90;;;;;;4980550;28;20034;-65
2022/06/21 04:35:02;;;;;;;6.55;4.35;;;8.60;99.90;;;;;;4956343;28;20051;-65
2022/06/21 04:37:46;;;;;;;5.88;4.90;;;8.70;99.90;;;;;;4971475;28;20043;-65
2022/06/21 04:40:38;;;;;;;6.63;5.30;;;8.80;99.90;;;;;;4981855;28;20122;-65
2022/06/21 04:43:15;;;;;;;8.48;5.63;;;8.80;99.90;;;;;;4965183;28;20109;-65
2022/06/21 04:45:50;;;;;;;7.38;5.55;;;9.00;99.90;;;;;;4977998;28;20426;-65
2022/06/21 04:48:43;;;;;;;11.02;6.50;;;9.00;99.90;;;;;;4967174;28;20034;-65
2022/06/21 04:51:36;;;;;;;7.30;5.75;;;9.20;99.90;;;;;;4965102;28;20067;-65
2022/06/21 04:54:27;;;;;;;7.65;5.60;;;9.20;99.90;;;;;;4964629;28;20053;-65
2022/06/21 04:57:05;;;;;;;7.97;5.45;;;9.20;99.90;;;;;;4974997;28;20046;-65
2022/06/21 04:59:51;;;;;;;11.30;6.47;;;9.30;99.90;;;;;;4974155;28;20072;-65
2022/06/21 05:02:36;;;;;;;12.50;6.05;;;9.40;99.90;;;;;;4975490;28;20042;-65
2022/06/21 05:05:12;;;;;;;8.93;5.90;;;9.50;99.90;;;;;;4981913;28;20042;-65
2022/06/21 05:07:45;;;;;;;8.35;6.78;;;9.60;99.90;;;;;;4964482;28;20110;-65
2022/06/21 05:10:24;;;;;;;10.48;7.47;;;9.80;99.90;;;;;;4969869;28;20407;-65
2022/06/21 05:12:52;;;;;;;9.75;7.45;;;10.00;99.90;;;;;;4974041;28;20038;-65
2022/06/21 05:15:25;;;;;;;14.70;7.68;;;10.10;99.90;;;;;;4974059;28;20031;-65
2022/06/21 05:18:16;;;;;;;16.08;8.07;;;10.30;99.90;;;;;;4952685;28;20398;-65
2022/06/21 05:20:49;;;;;;;11.43;8.35;;;10.60;99.90;;;;;;4975579;28;20107;-66
2022/06/21 05:23:17;;;;;;;11.90;7.75;;;10.70;99.90;;;;;;4992367;28;20039;-66
2022/06/21 05:25:45;;;;;;;15.85;7.97;;;10.90;99.90;;;;;;4977860;28;20086;-65
2022/06/21 05:28:19;;;;;;;12.50;8.40;;;11.00;99.90;;;;;;4972765;28;20030;-65
2022/06/21 05:30:49;;;;;;;19.00;8.82;;;11.10;99.90;;;;;;4972914;28;20042;-65
2022/06/21 05:33:18;;;;;;;18.23;9.20;;;11.30;99.90;;;;;;4970653;28;20074;-66
2022/06/21 05:35:44;;;;;;;12.10;8.60;;;11.40;99.90;;;;;;4971965;28;20041;-66
2022/06/21 05:38:31;;;;;;;15.25;9.55;;;11.60;99.90;;;;;;4973015;28;20074;-65
2022/06/21 05:40:59;;;;;;;15.75;8.85;;;11.70;99.90;;;;;;4971895;28;20043;-66
2022/06/21 05:43:38;;;;;;;15.32;9.30;;;11.80;99.90;;;;;;4969569;28;20047;-66
2022/06/21 05:46:19;;;;;;;19.52;8.82;;;12.00;99.90;;;;;;4972427;28;20027;-65
2022/06/21 05:48:45;;;;;;;14.80;8.13;;;12.20;99.90;;;;;;4973164;28;20117;-66
2022/06/21 05:51:19;;;;;;;19.42;8.07;;;12.30;99.90;;;;;;4969333;28;20035;-65
2022/06/21 05:53:51;;;;;;;14.98;8.45;;;12.60;99.90;;;;;;4972359;28;20093;-65
2022/06/21 05:56:21;;;;;;;14.18;8.15;;;12.70;99.90;;;;;;4975121;28;20070;-66
2022/06/21 05:58:57;;;;;;;13.25;8.27;;;12.90;99.90;;;;;;4942542;28;20049;-66
2022/06/21 06:01:29;;;;;;;13.85;7.95;;;13.00;99.90;;;;;;4972439;28;20039;-66
2022/06/21 06:04:10;;;;;;;13.68;8.20;;;13.00;99.90;;;;;;4972788;28;20499;-65
2022/06/21 06:06:40;;;;;;;10.00;7.25;;;13.10;99.90;;;;;;4967537;28;20542;-65
2022/06/21 06:09:25;;;;;;;13.05;7.85;;;13.10;99.90;;;;;;4971244;28;20045;-65
2022/06/21 06:12:09;;;;;;;14.50;7.88;;;13.10;99.90;;;;;;4975718;28;20125;-65
2022/06/21 06:14:41;;;;;;;13.18;7.30;;;13.10;99.90;;;;;;4988885;28;20057;-65
2022/06/21 06:17:33;;;;;;;15.50;7.85;;;13.10;99.90;;;;;;4970945;28;20039;-65
2022/06/21 06:20:06;;;;;;;15.45;7.65;;;13.10;99.90;;;;;;4972129;28;20081;-65
2022/06/21 06:22:51;;;;;;;11.23;7.72;;;13.10;99.90;;;;;;4972648;28;20154;-65
2022/06/21 06:25:26;;;;;;;10.43;7.75;;;13.20;99.90;;;;;;4976005;28;20045;-65
2022/06/21 06:28:08;;;;;;;15.07;7.25;;;13.30;99.90;;;;;;4964611;28;20558;-66
2022/06/21 06:30:46;;;;;;;15.43;8.10;;;13.40;99.90;;;;;;4972329;28;20042;-65
2022/06/21 06:33:22;;;;;;;14.05;7.10;;;13.50;99.90;;;;;;4969776;28;20046;-65
2022/06/21 06:35:49;;;;;;;10.75;4.90;;;13.60;99.90;;;;;;4952596;28;20392;-65
2022/06/21 06:38:16;;;;;;;15.88;7.60;;;13.70;99.90;;;;;;4971392;28;20492;-65
2022/06/21 06:40:58;;;;;;;10.85;5.72;;;13.80;99.90;;;;;;4980744;28;20034;-65
2022/06/21 06:43:34;;;;;;;10.90;5.20;;;13.90;99.90;;;;;;4979047;28;20076;-65
2022/06/21 06:46:00;;;;;;;7.05;4.80;;;14.00;99.90;;;;;;4991436;28;20042;-65
2022/06/21 06:48:31;;;;;;;12.30;4.80;;;14.10;99.90;;;;;;4991202;28;20037;-65
2022/06/21 06:51:18;;;;;;;9.65;3.03;;;14.20;99.90;;;;;;4977086;28;20031;-65
2022/06/21 06:53:46;;;;;;;7.75;2.72;;;14.30;99.90;;;;;;4979467;28;20419;-67
2022/06/21 06:56:21;;;;;;;6.75;3.20;;;14.40;99.90;;;;;;4968847;28;20042;-67
2022/06/21 06:58:51;;;;;;;8.75;4.03;;;14.50;99.90;;;;;;4978679;28;20046;-67
2022/06/21 07:01:24;;;;;;;7.28;4.10;;;14.60;99.90;;;;;;4979471;28;20054;-68
2022/06/21 07:04:00;;;;;;;9.68;4.90;;;14.70;99.90;;;;;;4971850;28;20139;-66
2022/06/21 07:06:43;;;;;;;8.65;4.60;;;14.90;99.90;;;;;;4969319;28;20153;-67
2022/06/21 07:09:25;;;;;;;11.90;5.30;;;14.90;99.90;;;;;;4975184;28;20480;-65
2022/06/21 07:12:08;;;;;;;7.20;4.72;;;15.00;99.90;;;;;;4976811;28;20046;-65
2022/06/21 07:14:35;;;;;;;10.23;4.60;;;15.00;99.90;;;;;;4973926;28;20047;-67
2022/06/21 07:17:25;;;;;;;9.95;4.20;;;14.80;99.90;;;;;;4986409;28;20045;-68
2022/06/21 07:19:52;;;;;;;9.48;4.50;;;14.80;99.90;;;;;;4970029;28;20078;-69
2022/06/21 07:22:26;;;;;;;8.95;4.10;;;14.70;99.90;;;;;;4970085;28;20070;-67
2022/06/21 07:25:01;;;;;;;8.05;3.92;;;14.70;99.90;;;;;;4970448;28;20110;-67
2022/06/21 07:27:28;;;;;;;7.22;3.75;;;14.70;99.90;;;;;;4970786;28;20031;-67
2022/06/21 07:30:16;;;;;;;6.53;3.70;;;14.80;99.90;;;;;;4967101;28;20038;-67
2022/06/21 07:33:04;;;;;;;7.00;4.43;;;14.90;99.90;;;;;;4969743;28;20518;-67
2022/06/21 07:35:36;;;;;;;9.88;4.70;;;15.00;99.90;;;;;;4971184;28;20093;-66
2022/06/21 07:38:27;;;;;;;11.80;4.80;;;15.10;99.90;;;;;;4965506;28;20039;-66
2022/06/21 07:41:04;;;;;;;12.75;5.10;;;15.30;99.90;;;;;;4969417;28;20043;-67
2022/06/21 07:43:51;;;;;;;8.82;4.55;;;15.50;99.90;;;;;;4970091;28;20061;-67
2022/06/21 07:46:24;;;;;;;12.57;5.05;;;15.60;99.90;;;;;;4965666;28;20045;-68
2022/06/21 07:49:25;;;;;;;9.65;5.22;;;15.70;99.90;;;;;;4969636;28;20035;-66
2022/06/21 07:51:55;;;;;;;8.48;4.28;;;15.80;99.90;;;;;;4932985;28;21274;-67
2022/06/21 07:54:31;;;;;;;6.43;4.55;;;15.70;99.90;;;;;;4966602;28;20046;-66
2022/06/21 07:57:04;;;;;;;9.57;4.40;;;15.60;99.90;;;;;;4968013;28;20115;-66
2022/06/21 07:59:45;;;;;;;8.70;4.45;;;15.50;99.90;;;;;;4971667;28;20050;-66
2022/06/21 08:07:56;;;;;;;6.50;4.60;;;15.30;99.90;;;;;;4954704;28;20054;-66
2022/06/21 08:10:48;;;;;;;10.68;5.10;;;15.20;99.90;;;;;;4957802;28;20043;-66
2022/06/21 08:13:14;;;;;;;;;;;15.30;99.90;;;;;;4972481;28;20046;-66
2022/06/21 08:15:44;;;;;;;11.30;5.13;;;15.40;99.90;;;;;;4954572;28;19940;-66
2022/06/21 08:18:21;;;;;;;9.57;4.63;;;15.50;99.90;;;;;;4967199;28;20066;-66
2022/06/21 08:20:57;;;;;;;13.23;5.05;;;15.60;99.90;;;;;;4968267;28;20063;-66
2022/06/21 08:23:33;;;;;;;12.63;5.38;;;15.70;99.90;;;;;;4968051;28;20101;-66
2022/06/21 08:26:03;;;;;;;8.73;4.90;;;15.80;99.90;;;;;;4966804;28;20503;-66
2022/06/21 08:28:43;;;;;;;9.88;5.18;;;15.80;99.90;;;;;;4964482;28;20073;-66
2022/06/21 08:31:33;;;;;;;8.38;5.03;;;15.90;99.90;;;;;;4964457;28;20047;-66
2022/06/21 08:34:23;;;;;;;12.10;5.05;;;16.20;99.90;;;;;;4944320;28;20047;-66
2022/06/21 08:37:18;;;;;;;8.40;5.33;;;16.30;99.90;;;;;;4952184;28;20070;-66
2022/06/21 08:39:51;;;;;;;11.20;5.45;;;16.50;99.90;;;;;;4943954;28;20499;-66
2022/06/21 08:42:44;;;;;;;8.85;5.07;;;16.70;99.90;;;;;;5417410;23;20057;-66
2022/06/21 08:45:43;;;;;;;13.48;5.30;;;16.80;99.90;;;;;;4970301;28;20040;-66
2022/06/21 08:48:28;;;;;;;8.68;5.15;;;16.90;99.90;;;;;;4974515;28;20037;-66
2022/06/21 08:51:20;;;;;;;7.45;5.00;;;16.90;99.90;;;;;;4971233;28;20039;-66
2022/06/21 08:54:05;;;;;;;9.43;5.13;;;16.90;99.90;;;;;;4962716;28;20047;-66
2022/06/21 09:00:47;;;;;;;7.00;5.07;;;17.20;99.90;;;;;;4975168;28;20150;-66
2022/06/21 09:03:51;;;;;;;9.43;5.97;;;17.30;99.90;;;;;;4943825;28;20043;-66
2022/06/21 09:06:37;;;;;;;10.50;5.45;;;17.70;99.90;;;;;;4963783;28;20558;-66
2022/06/21 09:09:18;;;;;;;12.68;5.50;;;17.90;99.90;;;;;;4964268;28;20043;-66
2022/06/21 09:12:13;;;;;;;10.65;4.93;;;18.00;99.90;;;;;;4960258;28;20651;-66
2022/06/21 09:15:15;;;;;;;6.28;4.35;;;17.80;99.90;;;;;;4966061;28;20039;-66
2022/06/21 09:17:59;;;;;;;8.10;4.60;;;17.90;99.90;;;;;;4965172;28;20047;-66
2022/06/21 09:20:35;;;;;;;9.25;5.38;;;18.00;99.90;;;;;;4964434;28;20065;-66
2022/06/21 09:23:13;;;;;;;9.35;5.55;;;18.20;99.90;;;;;;4957777;28;20135;-66
2022/06/21 09:26:01;;;;;;;10.23;5.57;;;18.40;99.90;;;;;;4953016;29;20592;-66
2022/06/21 09:29:01;;;;;;;10.00;5.80;;;18.50;99.90;;;;;;4955570;28;20046;-66
2022/06/21 09:36:44;;;;;;;7.22;5.45;;;18.90;99.90;;;;;;5601634;23;20054;-65
2022/06/21 09:39:20;;;;;;;9.27;5.30;;;19.10;99.90;;;;;;4957321;28;20035;-65
2022/06/21 09:42:08;;;;;;;10.98;5.75;;;19.20;99.90;;;;;;4982484;28;20038;-66
2022/06/21 09:44:57;;;;;;;9.63;5.85;;;19.30;99.90;;;;;;4968239;28;20039;-66
2022/06/21 09:47:44;;;;;;;9.80;5.20;;;19.30;99.90;;;;;;4988619;28;20049;-66
2022/06/21 09:50:29;;;;;;;13.85;5.50;;;19.50;99.90;;;;;;5000568;23;20097;-66
2022/06/21 09:53:03;;;;;;;7.55;4.65;;;19.40;99.90;;;;;;4962277;28;20046;-67
2022/06/21 09:55:53;;;;;;;10.40;4.80;;;19.50;99.90;;;;;;4957280;28;20043;-67
2022/06/21 09:58:38;;;;;;;7.05;4.40;;;19.50;99.90;;;;;;4969267;28;20053;-67
2022/06/21 10:01:35;;;;;;;6.80;4.22;;;19.50;99.90;;;;;;4960410;28;20120;-66
2022/06/21 10:04:13;;;;;;;10.55;4.80;;;19.60;99.90;;;;;;4940235;29;20052;-67
2022/06/21 10:07:02;;;;;;;7.07;4.20;;;19.50;99.90;;;;;;4970730;28;20039;-66
2022/06/21 10:09:58;;;;;;;7.28;4.15;;;19.40;99.90;;;;;;4948133;28;20634;-66
2022/06/21 10:12:54;;;;;;;9.85;4.40;;;19.60;99.90;;;;;;4952974;28;20039;-67
2022/06/21 10:15:35;;;;;;;7.35;5.45;;;19.60;99.90;;;;;;4940196;28;20047;-67
2022/06/21 10:18:28;;;;;;;9.15;5.75;;;19.80;99.90;;;;;;4965046;28;20043;-66
2022/06/21 10:21:09;;;;;;;9.43;5.40;;;19.90;99.90;;;;;;4938993;29;20062;-67
2022/06/21 10:24:02;;;;;;;12.73;4.90;;;19.60;99.50;;;;;;4956547;28;20490;-66
2022/06/21 10:26:49;;;;;;;6.55;4.53;;;19.30;99.50;;;;;;4955623;28;20155;-67
2022/06/21 10:29:23;;;;;;;7.10;4.65;;;19.20;99.90;;;;;;4940265;29;20094;-67
2022/06/21 10:32:07;;;;;;;6.40;5.03;;;19.00;99.90;;;;;;4938441;28;20043;-66
2022/06/21 10:35:14;;;;;;;10.43;5.10;;;19.10;99.40;;;;;;4945320;28;20047;-67
2022/06/21 10:37:58;;;;;;;9.82;5.05;;;19.40;99.90;;;;;;4956604;28;20043;-66
2022/06/21 10:40:27;;;;;;;9.00;5.18;;;19.60;99.90;;;;;;4954388;28;20043;-66
2022/06/21 10:43:21;;;;;;;6.55;4.40;;;19.80;99.90;;;;;;4954802;28;20043;-67
2022/06/21 10:46:05;;;;;;;6.55;4.45;;;20.00;98.50;;;;;;4941400;28;20114;-66
2022/06/21 10:48:45;;;;;;;5.88;4.32;;;20.10;98.20;;;;;;4956364;28;20066;-66
2022/06/21 10:51:36;;;;;;;10.00;5.30;;;20.30;99.90;;;;;;4937764;28;20255;-67
2022/06/21 10:54:32;;;;;;;6.07;5.18;;;20.50;99.20;;;;;;4954830;28;20097;-66
2022/06/21 10:57:19;;;;;;;5.97;4.50;;;20.70;99.90;;;;;;4934192;28;20051;-67
2022/06/21 11:03:29;;;;;;;7.82;3.60;;;20.80;99.10;;;;;;4940881;28;20500;-67
2022/06/21 11:06:24;;;;;;;5.97;3.78;;;20.90;98.70;;;;;;4956294;28;20496;-66
2022/06/21 11:09:31;;;;;;;10.90;4.20;;;20.90;93.50;;;;;;4945990;28;20039;-67
2022/06/21 11:15:20;;;;;;;10.65;3.53;;;21.10;97.20;;;;;;4933327;29;20138;-67
2022/06/21 11:17:49;;;;;;;4.93;2.20;;;21.10;98.00;;;;;;4957894;28;20038;-67
2022/06/21 11:20:33;;;;;;;4.82;2.33;;;21.20;96.90;;;;;;4948839;29;20468;-67
2022/06/21 11:23:36;;;;;;;5.53;2.40;;;21.10;93.00;;;;;;4948637;28;20047;-67
2022/06/21 11:26:15;;;;;;;5.75;2.40;;;20.70;93.10;;;;;;4950566;28;20049;-67
2022/06/21 11:29:02;;;;;;;3.55;2.20;;;20.80;94.40;;;;;;4959079;28;20047;-67
2022/06/21 11:31:46;;;;;;;5.22;2.03;;;21.10;95.90;;;;;;4951682;28;20075;-67
2022/06/21 11:34:46;;;;;;;5.53;2.47;;;21.30;94.00;;;;;;4962918;28;20035;-67
2022/06/21 11:37:31;;;;;;;3.50;2.20;;;21.40;91.90;;;;;;4942444;28;20044;-67
2022/06/21 11:40:22;;;;;;;4.05;2.15;;;21.70;91.50;;;;;;4947602;28;20039;-67
2022/06/21 11:42:48;;;;;;;;;;;21.80;93.50;;;;;;4949209;29;20047;-67
2022/06/21 11:45:40;;;;;;;6.03;3.25;;;22.00;90.10;;;;;;4938464;29;19968;-66
2022/06/21 11:48:29;;;;;;;4.30;2.80;;;22.10;92.10;;;;;;4937519;28;20058;-67
2022/06/21 11:51:10;;;;;;;4.50;2.40;;;22.10;90.20;;;;;;4962590;28;20046;-67
2022/06/21 11:54:00;;;;;;;5.53;2.00;;;22.40;86.40;;;;;;4964282;28;20050;-67
2022/06/21 11:57:03;;;;;;;3.42;2.25;;;22.60;88.20;;;;;;4943327;28;20050;-67
2022/06/21 11:59:34;;;;;;;4.28;2.50;;;22.80;92.30;;;;;;4948958;28;20074;-67
2022/06/21 12:02:30;;;;;;;7.63;2.90;;;22.70;90.20;;;;;;4966512;28;20040;-67
2022/06/21 12:05:14;;;;;;;5.65;2.30;;;22.70;84.90;;;;;;4944325;29;20042;-67
2022/06/21 12:08:17;;;;;;;5.75;3.03;;;22.40;92.60;;;;;;4945414;28;20042;-67
2022/06/21 12:10:51;;;;;;;4.63;2.35;;;22.30;90.90;;;;;;4934039;28;20075;-67
2022/06/21 12:13:47;;;;;;;4.07;2.40;;;22.20;93.30;;;;;;4943561;28;20104;-67
2022/06/21 12:16:36;;;;;;;4.43;1.85;;;22.00;83.70;;;;;;4960959;28;20058;-67
2022/06/21 12:19:16;;;;;;;5.47;1.90;;;21.80;90.10;;;;;;4944123;29;20051;-67
2022/06/21 12:21:52;;;;;;;3.67;2.05;;;21.80;89.00;;;;;;4959188;28;20036;-67
2022/06/21 12:24:23;;;;;;;4.40;1.83;;;21.80;88.20;;;;;;4947008;28;20094;-67
2022/06/21 12:26:49;;;;;;;4.40;1.90;;;21.70;91.40;;;;;;4961608;28;20542;-67
2022/06/21 12:29:19;;;;;;;5.95;1.70;;;22.00;91.20;;;;;;4965482;28;20054;-67
2022/06/21 12:31:49;;;;;;;4.00;1.67;;;22.20;89.40;;;;;;4945835;28;20070;-67
2022/06/21 12:34:34;;;;;;;4.88;1.88;;;22.40;89.30;;;;;;4962959;28;20097;-67
2022/06/21 12:37:14;;;;;;;3.25;1.90;;;22.70;91.10;;;;;;4968000;28;20043;-67
2022/06/21 12:39:44;;;;;;;4.53;2.10;;;22.90;88.60;;;;;;4953972;28;20047;-67
2022/06/21 12:42:55;;;;;;;5.88;2.03;;;23.10;90.30;;;;;;4951693;28;20041;-67
2022/06/21 12:45:44;;;;;;;4.53;2.08;;;23.30;76.80;;;;;;4930642;28;20047;-67
2022/06/21 12:48:13;;;;;;;3.45;1.90;;;23.30;79.80;;;;;;4947052;28;20415;-67
2022/06/21 12:50:59;;;;;;;5.75;2.30;;;23.30;86.20;;;;;;4949818;28;20142;-67
2022/06/21 12:53:52;;;;;;;3.38;2.05;;;23.70;82.80;;;;;;4947652;28;20109;-67
2022/06/21 12:56:37;;;;;;;5.60;2.17;;;24.10;89.30;;;;;;4930224;29;20563;-67
2022/06/21 12:59:27;;;;;;;6.32;1.95;;;24.40;88.20;;;;;;4940722;28;20076;-67
2022/06/21 13:02:20;;;;;;;3.53;1.70;;;24.40;82.90;;;;;;4946846;28;20377;-67
2022/06/21 13:05:21;;;;;;;3.90;1.80;;;24.40;82.30;;;;;;4966157;28;20119;-67
2022/06/21 13:08:05;;;;;;;3.80;1.90;;;24.30;78.40;;;;;;4942162;28;20050;-67
2022/06/21 13:10:48;;;;;;;11.68;2.30;;;24.10;82.60;;;;;;4948492;29;20511;-67
2022/06/21 13:13:24;;;;;;;6.18;2.10;;;23.80;84.90;;;;;;4942186;28;20047;-67
2022/06/21 13:16:05;;;;;;;2.70;1.73;;;23.70;85.90;;;;;;4949439;28;20050;-67
2022/06/21 13:18:34;;;;;;;;;;;23.80;80.70;;;;;;4946843;28;20097;-67
2022/06/21 13:21:21;;;;;;;4.85;2.00;;;23.80;79.10;;;;;;4947351;28;19980;-67
2022/06/21 13:24:08;;;;;;;6.53;2.00;;;23.60;83.20;;;;;;4951352;28;20687;-67
2022/06/21 13:26:46;;;;;;;6.32;1.90;;;23.90;87.90;;;;;;4954036;28;20058;-67
2022/06/21 13:29:40;;;;;;;3.67;1.55;;;23.80;77.20;;;;;;4953451;28;20053;-67
2022/06/21 13:32:15;;;;;;;5.15;1.83;;;23.90;79.00;;;;;;4966730;28;20046;-67
2022/06/21 13:34:49;;;;;;;5.05;1.90;;;24.10;79.80;;;;;;4963185;28;20035;-67
2022/06/21 13:37:31;;;;;;;4.03;1.70;;;24.20;73.30;;;;;;4943483;28;20038;-67
2022/06/21 13:40:08;;;;;;;4.28;1.60;;;24.60;68.80;;;;;;4961149;28;20043;-67
2022/06/21 13:42:48;;;;;;;5.75;1.83;;;24.70;71.90;;;;;;4953707;28;20055;-67
2022/06/21 13:45:39;;;;;;;3.53;1.70;;;25.20;76.00;;;;;;4957020;28;20058;-67
2022/06/21 13:48:19;;;;;;;5.85;2.30;;;25.60;71.40;;;;;;4963304;28;20031;-67
2022/06/21 13:50:58;;;;;;;7.97;2.00;;;25.70;72.90;;;;;;4954983;28;20419;-67
2022/06/21 13:54:02;;;;;;;4.30;1.70;;;25.90;65.30;;;;;;4950082;28;20081;-67
2022/06/21 13:56:51;;;;;;;3.67;1.90;;;26.20;67.60;;;;;;4944044;28;20072;-67
2022/06/21 13:59:26;;;;;;;8.50;1.60;;;26.60;66.40;;;;;;4957589;28;20039;-67
2022/06/21 14:02:27;;;;;;;4.53;1.83;;;26.50;66.10;;;;;;4968552;28;20035;-67
2022/06/21 14:05:01;;;;;;;3.70;1.73;;;26.80;61.90;;;;;;4966635;28;20043;-67
2022/06/21 14:08:01;;;;;;;4.00;1.70;;;26.90;67.50;;;;;;4972110;28;20046;-67
2022/06/21 14:10:39;;;;;;;2.55;1.50;;;27.10;58.30;;;;;;4960486;28;20721;-67
2022/06/21 14:13:32;;;;;;;3.60;1.50;;;27.30;58.60;;;;;;4957828;28;20039;-67
2022/06/21 14:16:09;;;;;;;3.42;1.60;;;27.80;58.40;;;;;;4956648;28;20086;-67
2022/06/21 14:18:45;;;;;;;3.53;1.60;;;27.50;56.80;;;;;;4944354;28;20074;-67